sensor_id;sensor_type;location;lat;lon;timestamp;pressure;altitude;pressure_sealevel;temperature;humidity
35878;BME280;21982;49.804;24.072;2024-01-07T00:02:09;96475.63;;;1.66;73.63
35878;BME280;21982;49.804;24.072;2024-01-07T00:04:35;96513.94;;;1.91;73.94
35878;BME280;21982;49.804;24.072;2024-01-07T00:07:01;96515.94;;;1.97;73.67
35878;BME280;21982;49.804;24.072;2024-01-07T00:09:26;96494.34;;;1.87;74.21
35878;BME280;21982;49.804;24.072;2024-01-07T00:11:52;96501.88;;;1.90;74.30
35878;BME280;21982;49.804;24.072;2024-01-07T00:14:17;96524.09;;;1.94;73.81
35878;BME280;21982;49.804;24.072;2024-01-07T00:16:42;96476.28;;;1.68;74.07
35878;BME280;21982;49.804;24.072;2024-01-07T00:19:08;96498.00;;;1.68;73.69
35878;BME280;21982;49.804;24.072;2024-01-07T00:21:33;96520.81;;;1.92;73.71
35878;BME280;21982;49.804;24.072;2024-01-07T00:23:59;96490.00;;;1.70;73.73
35878;BME280;21982;49.804;24.072;2024-01-07T00:26:25;96510.25;;;1.76;73.84
35878;BME280;21982;49.804;24.072;2024-01-07T00:28:50;96500.47;;;1.78;74.07
35878;BME280;21982;49.804;24.072;2024-01-07T00:31:16;96514.25;;;1.88;73.90
35878;BME280;21982;49.804;24.072;2024-01-07T00:33:41;96525.44;;;1.81;73.93
35878;BME280;21982;49.804;24.072;2024-01-07T00:36:06;96510.63;;;1.81;74.22
35878;BME280;21982;49.804;24.072;2024-01-07T00:38:32;96512.56;;;1.79;74.17
35878;BME280;21982;49.804;24.072;2024-01-07T00:40:57;96354.53;;;0.81;74.02
35878;BME280;21982;49.804;24.072;2024-01-07T00:43:23;96508.75;;;1.74;73.44
35878;BME280;21982;49.804;24.072;2024-01-07T00:45:48;96475.78;;;1.47;74.13
35878;BME280;21982;49.804;24.072;2024-01-07T00:48:14;96455.72;;;1.21;73.63
35878;BME280;21982;49.804;24.072;2024-01-07T00:50:40;96522.75;;;1.47;73.82
35878;BME280;21982;49.804;24.072;2024-01-07T00:53:05;96511.13;;;1.41;73.64
35878;BME280;21982;49.804;24.072;2024-01-07T00:55:31;96488.94;;;1.19;74.51
35878;BME280;21982;49.804;24.072;2024-01-07T00:57:56;96505.63;;;1.26;73.57
35878;BME280;21982;49.804;24.072;2024-01-07T01:00:22;96453.66;;;0.89;74.02
35878;BME280;21982;49.804;24.072;2024-01-07T01:02:47;96505.94;;;1.23;73.78
35878;BME280;21982;49.804;24.072;2024-01-07T01:05:12;96517.41;;;1.30;73.79
35878;BME280;21982;49.804;24.072;2024-01-07T01:07:38;96468.84;;;0.94;74.01
35878;BME280;21982;49.804;24.072;2024-01-07T01:10:04;96405.53;;;0.48;74.40
35878;BME280;21982;49.804;24.072;2024-01-07T01:12:30;96528.59;;;1.23;73.79
35878;BME280;21982;49.804;24.072;2024-01-07T01:14:55;96529.84;;;1.19;74.05
35878;BME280;21982;49.804;24.072;2024-01-07T01:17:20;96508.38;;;1.07;74.16
35878;BME280;21982;49.804;24.072;2024-01-07T01:19:46;96520.53;;;1.16;73.63
35878;BME280;21982;49.804;24.072;2024-01-07T01:22:11;96518.59;;;1.18;74.19
35878;BME280;21982;49.804;24.072;2024-01-07T01:24:36;96525.31;;;1.21;73.84
35878;BME280;21982;49.804;24.072;2024-01-07T01:27:02;96496.31;;;1.06;73.77
35878;BME280;21982;49.804;24.072;2024-01-07T01:29:27;96518.69;;;1.26;73.71
35878;BME280;21982;49.804;24.072;2024-01-07T01:31:53;96526.34;;;1.28;73.68
35878;BME280;21982;49.804;24.072;2024-01-07T01:34:18;96517.25;;;1.32;73.53
35878;BME280;21982;49.804;24.072;2024-01-07T01:36:43;96516.59;;;1.30;74.09
35878;BME280;21982;49.804;24.072;2024-01-07T01:39:09;96438.66;;;0.74;73.77
35878;BME280;21982;49.804;24.072;2024-01-07T01:41:34;96446.78;;;0.71;73.59
35878;BME280;21982;49.804;24.072;2024-01-07T01:44:00;96523.28;;;1.15;74.20
35878;BME280;21982;49.804;24.072;2024-01-07T01:46:27;96489.78;;;1.02;74.33
35878;BME280;21982;49.804;24.072;2024-01-07T01:48:55;96520.31;;;1.10;74.05
35878;BME280;21982;49.804;24.072;2024-01-07T01:51:21;96514.56;;;1.06;74.36
35878;BME280;21982;49.804;24.072;2024-01-07T01:53:47;96441.81;;;0.59;73.66
35878;BME280;21982;49.804;24.072;2024-01-07T01:56:13;96513.53;;;0.99;73.90
35878;BME280;21982;49.804;24.072;2024-01-07T01:58:39;96486.03;;;0.87;74.28
35878;BME280;21982;49.804;24.072;2024-01-07T02:01:04;96510.94;;;0.99;74.01
35878;BME280;21982;49.804;24.072;2024-01-07T02:03:29;96440.44;;;0.55;74.38
35878;BME280;21982;49.804;24.072;2024-01-07T02:05:56;96508.69;;;1.04;74.42
35878;BME280;21982;49.804;24.072;2024-01-07T02:08:23;96500.84;;;1.04;73.67
35878;BME280;21982;49.804;24.072;2024-01-07T02:10:50;96448.75;;;0.69;74.14
35878;BME280;21982;49.804;24.072;2024-01-07T02:13:15;96460.28;;;0.66;74.33
35878;BME280;21982;49.804;24.072;2024-01-07T02:15:40;96514.50;;;0.98;73.69
35878;BME280;21982;49.804;24.072;2024-01-07T02:18:06;96437.16;;;0.53;74.10
35878;BME280;21982;49.804;24.072;2024-01-07T02:20:31;96503.94;;;0.99;74.12
35878;BME280;21982;49.804;24.072;2024-01-07T02:22:57;96467.63;;;0.71;74.02
35878;BME280;21982;49.804;24.072;2024-01-07T02:25:25;96499.59;;;0.90;73.72
35878;BME280;21982;49.804;24.072;2024-01-07T02:27:50;96487.44;;;0.81;74.11
35878;BME280;21982;49.804;24.072;2024-01-07T02:30:16;96504.97;;;0.89;73.40
35878;BME280;21982;49.804;24.072;2024-01-07T02:32:42;96504.56;;;0.84;74.12
35878;BME280;21982;49.804;24.072;2024-01-07T02:35:07;96502.56;;;0.78;74.08
35878;BME280;21982;49.804;24.072;2024-01-07T02:37:34;96503.38;;;0.78;74.11
35878;BME280;21982;49.804;24.072;2024-01-07T02:39:59;96466.88;;;0.60;73.43
35878;BME280;21982;49.804;24.072;2024-01-07T02:42:25;96462.53;;;0.51;74.08
35878;BME280;21982;49.804;24.072;2024-01-07T02:44:50;96481.16;;;0.56;73.90
35878;BME280;21982;49.804;24.072;2024-01-07T02:47:15;96413.09;;;0.24;73.38
35878;BME280;21982;49.804;24.072;2024-01-07T02:49:41;96502.94;;;0.83;73.87
35878;BME280;21982;49.804;24.072;2024-01-07T02:52:06;96505.16;;;0.78;73.75
35878;BME280;21982;49.804;24.072;2024-01-07T02:54:31;96505.44;;;0.75;73.97
35878;BME280;21982;49.804;24.072;2024-01-07T02:56:57;96473.94;;;0.50;74.07
35878;BME280;21982;49.804;24.072;2024-01-07T02:59:22;96514.91;;;0.76;73.01
35878;BME280;21982;49.804;24.072;2024-01-07T03:01:48;96437.22;;;0.26;73.52
35878;BME280;21982;49.804;24.072;2024-01-07T03:04:15;96446.22;;;0.31;73.74
35878;BME280;21982;49.804;24.072;2024-01-07T03:06:40;96494.88;;;0.58;73.28
35878;BME280;21982;49.804;24.072;2024-01-07T03:09:06;96481.22;;;0.47;73.20
35878;BME280;21982;49.804;24.072;2024-01-07T03:11:32;96477.78;;;0.46;73.48
35878;BME280;21982;49.804;24.072;2024-01-07T03:13:57;96519.28;;;0.57;73.90
35878;BME280;21982;49.804;24.072;2024-01-07T03:16:23;96508.47;;;0.52;73.06
35878;BME280;21982;49.804;24.072;2024-01-07T03:18:49;96487.63;;;0.25;73.20
35878;BME280;21982;49.804;24.072;2024-01-07T03:21:22;96395.94;;;-0.24;73.22
35878;BME280;21982;49.804;24.072;2024-01-07T03:23:49;96508.91;;;0.48;73.18
35878;BME280;21982;49.804;24.072;2024-01-07T03:26:16;96493.31;;;0.38;73.17
35878;BME280;21982;49.804;24.072;2024-01-07T03:28:42;96512.50;;;0.37;73.46
35878;BME280;21982;49.804;24.072;2024-01-07T03:31:15;96478.22;;;0.14;73.07
35878;BME280;21982;49.804;24.072;2024-01-07T03:33:42;96507.63;;;0.34;73.05
35878;BME280;21982;49.804;24.072;2024-01-07T03:36:12;96480.69;;;0.16;73.36
35878;BME280;21982;49.804;24.072;2024-01-07T03:38:39;96504.75;;;0.27;72.94
35878;BME280;21982;49.804;24.072;2024-01-07T03:41:05;96473.34;;;0.02;73.14
35878;BME280;21982;49.804;24.072;2024-01-07T03:43:30;96439.88;;;-0.21;73.31
35878;BME280;21982;49.804;24.072;2024-01-07T03:45:56;96518.34;;;0.21;73.30
35878;BME280;21982;49.804;24.072;2024-01-07T03:48:22;96482.28;;;-0.01;73.49
35878;BME280;21982;49.804;24.072;2024-01-07T03:50:47;96493.31;;;0.11;73.46
35878;BME280;21982;49.804;24.072;2024-01-07T03:53:15;96517.91;;;0.26;73.24
35878;BME280;21982;49.804;24.072;2024-01-07T03:55:41;96513.00;;;0.23;73.58
35878;BME280;21982;49.804;24.072;2024-01-07T03:58:06;96482.75;;;0.12;73.40
35878;BME280;21982;49.804;24.072;2024-01-07T04:00:32;96512.00;;;0.33;72.99
35878;BME280;21982;49.804;24.072;2024-01-07T04:02:58;96510.38;;;0.23;72.68
35878;BME280;21982;49.804;24.072;2024-01-07T04:05:23;96517.13;;;0.16;73.12
35878;BME280;21982;49.804;24.072;2024-01-07T04:07:48;96476.13;;;-0.10;72.91
35878;BME280;21982;49.804;24.072;2024-01-07T04:10:16;96467.38;;;-0.09;73.10
35878;BME280;21982;49.804;24.072;2024-01-07T04:12:42;96477.66;;;-0.17;72.75
35878;BME280;21982;49.804;24.072;2024-01-07T04:15:07;96527.16;;;0.11;73.25
35878;BME280;21982;49.804;24.072;2024-01-07T04:17:33;96518.44;;;-0.08;72.68
35878;BME280;21982;49.804;24.072;2024-01-07T04:19:58;96494.38;;;-0.29;72.97
35878;BME280;21982;49.804;24.072;2024-01-07T04:22:24;96535.97;;;0.00;72.82
35878;BME280;21982;49.804;24.072;2024-01-07T04:24:49;96490.81;;;-0.18;72.92
35878;BME280;21982;49.804;24.072;2024-01-07T04:27:14;96486.59;;;-0.29;72.93
35878;BME280;21982;49.804;24.072;2024-01-07T04:29:40;96534.34;;;-0.11;73.38
35878;BME280;21982;49.804;24.072;2024-01-07T04:32:05;96506.44;;;-0.28;73.35
35878;BME280;21982;49.804;24.072;2024-01-07T04:34:31;96527.50;;;-0.12;73.16
35878;BME280;21982;49.804;24.072;2024-01-07T04:36:57;96540.22;;;-0.09;73.27
35878;BME280;21982;49.804;24.072;2024-01-07T04:39:22;96492.25;;;-0.43;72.99
35878;BME280;21982;49.804;24.072;2024-01-07T04:41:48;96536.81;;;-0.19;73.12
35878;BME280;21982;49.804;24.072;2024-01-07T04:44:13;96522.31;;;-0.31;73.13
35878;BME280;21982;49.804;24.072;2024-01-07T04:46:39;96542.28;;;-0.22;73.17
35878;BME280;21982;49.804;24.072;2024-01-07T04:49:05;96543.41;;;-0.24;73.33
35878;BME280;21982;49.804;24.072;2024-01-07T04:51:32;96552.03;;;-0.24;72.84
35878;BME280;21982;49.804;24.072;2024-01-07T04:53:58;96545.44;;;-0.28;72.88
35878;BME280;21982;49.804;24.072;2024-01-07T04:56:24;96547.09;;;-0.27;73.12
35878;BME280;21982;49.804;24.072;2024-01-07T04:58:49;96553.94;;;-0.26;73.06
35878;BME280;21982;49.804;24.072;2024-01-07T05:01:15;96543.94;;;-0.30;73.06
35878;BME280;21982;49.804;24.072;2024-01-07T05:03:40;96553.81;;;-0.34;72.98
35878;BME280;21982;49.804;24.072;2024-01-07T05:06:08;96552.72;;;-0.31;73.11
35878;BME280;21982;49.804;24.072;2024-01-07T05:08:34;96512.09;;;-0.61;73.05
35878;BME280;21982;49.804;24.072;2024-01-07T05:10:59;96559.56;;;-0.30;73.09
35878;BME280;21982;49.804;24.072;2024-01-07T05:13:25;96377.72;;;-1.37;72.68
35878;BME280;21982;49.804;24.072;2024-01-07T05:15:51;96441.41;;;-1.13;73.20
35878;BME280;21982;49.804;24.072;2024-01-07T05:18:22;96549.47;;;-0.43;73.65
35878;BME280;21982;49.804;24.072;2024-01-07T05:20:48;96559.19;;;-0.45;72.93
35878;BME280;21982;49.804;24.072;2024-01-07T05:23:14;96562.31;;;-0.51;72.83
35878;BME280;21982;49.804;24.072;2024-01-07T05:25:39;96555.47;;;-0.52;73.16
35878;BME280;21982;49.804;24.072;2024-01-07T05:28:05;96552.34;;;-0.56;73.45
35878;BME280;21982;49.804;24.072;2024-01-07T05:30:31;96536.88;;;-0.57;73.09
35878;BME280;21982;49.804;24.072;2024-01-07T05:32:56;96532.22;;;-0.63;72.96
35878;BME280;21982;49.804;24.072;2024-01-07T05:35:22;96569.59;;;-0.45;72.94
35878;BME280;21982;49.804;24.072;2024-01-07T05:37:47;96565.88;;;-0.52;73.22
35878;BME280;21982;49.804;24.072;2024-01-07T05:40:13;96529.50;;;-0.72;72.98
35878;BME280;21982;49.804;24.072;2024-01-07T05:42:38;96565.88;;;-0.52;73.05
35878;BME280;21982;49.804;24.072;2024-01-07T05:45:04;96508.97;;;-0.84;73.20
35878;BME280;21982;49.804;24.072;2024-01-07T05:47:29;96545.22;;;-0.63;73.02
35878;BME280;21982;49.804;24.072;2024-01-07T05:49:55;96581.63;;;-0.44;72.82
35878;BME280;21982;49.804;24.072;2024-01-07T05:52:21;96566.03;;;-0.44;72.98
35878;BME280;21982;49.804;24.072;2024-01-07T05:54:46;96560.41;;;-0.49;72.85
35878;BME280;21982;49.804;24.072;2024-01-07T05:57:12;96568.50;;;-0.43;72.66
35878;BME280;21982;49.804;24.072;2024-01-07T05:59:38;96559.19;;;-0.45;72.96
35878;BME280;21982;49.804;24.072;2024-01-07T06:02:03;96526.22;;;-0.74;72.73
35878;BME280;21982;49.804;24.072;2024-01-07T06:04:28;96516.91;;;-0.76;72.73
35878;BME280;21982;49.804;24.072;2024-01-07T06:06:54;96563.56;;;-0.55;72.81
35878;BME280;21982;49.804;24.072;2024-01-07T06:09:19;96472.88;;;-1.16;72.81
35878;BME280;21982;49.804;24.072;2024-01-07T06:11:45;96513.47;;;-0.96;72.67
35878;BME280;21982;49.804;24.072;2024-01-07T06:14:10;96575.47;;;-0.62;73.00
35878;BME280;21982;49.804;24.072;2024-01-07T06:16:35;96567.00;;;-0.74;73.19
35878;BME280;21982;49.804;24.072;2024-01-07T06:19:01;96547.69;;;-0.81;72.63
35878;BME280;21982;49.804;24.072;2024-01-07T06:21:26;96523.75;;;-1.04;72.61
35878;BME280;21982;49.804;24.072;2024-01-07T06:23:52;96581.63;;;-0.73;73.00
35878;BME280;21982;49.804;24.072;2024-01-07T06:26:17;96583.41;;;-0.74;73.10
35878;BME280;21982;49.804;24.072;2024-01-07T06:28:43;96580.38;;;-0.69;72.84
35878;BME280;21982;49.804;24.072;2024-01-07T06:31:09;96579.84;;;-0.73;73.02
35878;BME280;21982;49.804;24.072;2024-01-07T06:33:35;96498.13;;;-1.28;72.68
35878;BME280;21982;49.804;24.072;2024-01-07T06:36:02;96561.78;;;-0.74;72.68
35878;BME280;21982;49.804;24.072;2024-01-07T06:38:27;96582.16;;;-0.60;72.79
35878;BME280;21982;49.804;24.072;2024-01-07T06:40:53;96559.19;;;-0.74;72.64
35878;BME280;21982;49.804;24.072;2024-01-07T06:43:20;96588.88;;;-0.57;72.30
35878;BME280;21982;49.804;24.072;2024-01-07T06:45:46;96578.19;;;-0.64;72.56
35878;BME280;21982;49.804;24.072;2024-01-07T06:48:11;96603.13;;;-0.52;72.61
35878;BME280;21982;49.804;24.072;2024-01-07T06:50:37;96560.41;;;-0.78;72.35
35878;BME280;21982;49.804;24.072;2024-01-07T06:53:02;96612.13;;;-0.56;72.55
35878;BME280;21982;49.804;24.072;2024-01-07T06:55:27;96537.28;;;-0.91;72.54
35878;BME280;21982;49.804;24.072;2024-01-07T06:57:53;96600.66;;;-0.53;72.33
35878;BME280;21982;49.804;24.072;2024-01-07T07:00:18;96542.34;;;-0.89;72.51
35878;BME280;21982;49.804;24.072;2024-01-07T07:02:44;96585.59;;;-0.59;72.41
35878;BME280;21982;49.804;24.072;2024-01-07T07:05:09;96608.88;;;-0.48;72.43
35878;BME280;21982;49.804;24.072;2024-01-07T07:07:35;96559.75;;;-0.71;72.34
35878;BME280;21982;49.804;24.072;2024-01-07T07:10:00;96602.84;;;-0.39;72.23
35878;BME280;21982;49.804;24.072;2024-01-07T07:12:25;96598.34;;;-0.37;71.88
35878;BME280;21982;49.804;24.072;2024-01-07T07:14:51;96570.94;;;-0.60;71.99
35878;BME280;21982;49.804;24.072;2024-01-07T07:17:16;96582.44;;;-0.53;71.79
35878;BME280;21982;49.804;24.072;2024-01-07T07:19:42;96597.50;;;-0.47;72.08
35878;BME280;21982;49.804;24.072;2024-01-07T07:22:07;96604.06;;;-0.43;72.00
35878;BME280;21982;49.804;24.072;2024-01-07T07:25:06;96606.28;;;-0.39;71.64
35878;BME280;21982;49.804;24.072;2024-01-07T07:27:55;96598.75;;;-0.42;71.88
35878;BME280;21982;49.804;24.072;2024-01-07T07:30:21;96565.22;;;-0.74;71.92
35878;BME280;21982;49.804;24.072;2024-01-07T07:32:47;96615.72;;;-0.47;71.97
35878;BME280;21982;49.804;24.072;2024-01-07T07:35:15;96567.00;;;-0.74;71.70
35878;BME280;21982;49.804;24.072;2024-01-07T07:37:41;96596.53;;;-0.65;71.62
35878;BME280;21982;49.804;24.072;2024-01-07T07:40:07;96621.44;;;-0.53;71.62
35878;BME280;21982;49.804;24.072;2024-01-07T07:42:32;96579.03;;;-0.73;72.08
35878;BME280;21982;49.804;24.072;2024-01-07T07:44:57;96616.41;;;-0.45;71.72
35878;BME280;21982;49.804;24.072;2024-01-07T07:47:23;96611.88;;;-0.43;71.88
35878;BME280;21982;49.804;24.072;2024-01-07T07:49:48;96275.00;;;-2.66;71.57
35878;BME280;21982;49.804;24.072;2024-01-07T07:52:16;96462.44;;;-1.36;71.41
35878;BME280;21982;49.804;24.072;2024-01-07T07:54:47;96525.78;;;-0.98;71.69
35878;BME280;21982;49.804;24.072;2024-01-07T07:57:12;96618.47;;;-0.39;71.20
35878;BME280;21982;49.804;24.072;2024-01-07T07:59:37;96625.00;;;-0.54;71.35
35878;BME280;21982;49.804;24.072;2024-01-07T08:02:03;96577.63;;;-0.87;71.53
35878;BME280;21982;49.804;24.072;2024-01-07T08:04:30;96637.88;;;-0.43;71.47
35878;BME280;21982;49.804;24.072;2024-01-07T08:06:55;96627.50;;;-0.43;71.42
35878;BME280;21982;49.804;24.072;2024-01-07T08:09:21;96593.25;;;-0.68;71.08
35878;BME280;21982;49.804;24.072;2024-01-07T08:11:47;96567.78;;;-0.93;71.23
35878;BME280;21982;49.804;24.072;2024-01-07T08:14:12;96519.63;;;-1.16;71.17
35878;BME280;21982;49.804;24.072;2024-01-07T08:16:38;96642.81;;;-0.40;71.05
35878;BME280;21982;49.804;24.072;2024-01-07T08:19:03;96650.63;;;-0.40;71.07
35878;BME280;21982;49.804;24.072;2024-01-07T08:21:28;96654.44;;;-0.44;71.17
35878;BME280;21982;49.804;24.072;2024-01-07T08:23:54;96648.56;;;-0.46;71.12
35878;BME280;21982;49.804;24.072;2024-01-07T08:26:20;96652.81;;;-0.45;70.63
35878;BME280;21982;49.804;24.072;2024-01-07T08:28:45;96654.28;;;-0.52;70.81
35878;BME280;21982;49.804;24.072;2024-01-07T08:31:10;96643.31;;;-0.65;70.98
35878;BME280;21982;49.804;24.072;2024-01-07T08:33:36;96614.59;;;-0.74;70.52
35878;BME280;21982;49.804;24.072;2024-01-07T08:36:01;96607.31;;;-0.89;70.87
35878;BME280;21982;49.804;24.072;2024-01-07T08:38:28;96633.19;;;-0.69;70.73
35878;BME280;21982;49.804;24.072;2024-01-07T08:40:54;96655.94;;;-0.51;70.71
35878;BME280;21982;49.804;24.072;2024-01-07T08:43:20;96671.81;;;-0.54;70.55
35878;BME280;21982;49.804;24.072;2024-01-07T08:45:45;96662.78;;;-0.60;70.25
35878;BME280;21982;49.804;24.072;2024-01-07T08:48:12;96663.63;;;-0.50;70.65
35878;BME280;21982;49.804;24.072;2024-01-07T08:50:38;96648.53;;;-0.56;70.31
35878;BME280;21982;49.804;24.072;2024-01-07T08:53:04;96663.06;;;-0.53;70.42
35878;BME280;21982;49.804;24.072;2024-01-07T08:57:55;96426.91;;;-2.04;70.11
35878;BME280;21982;49.804;24.072;2024-01-07T09:00:20;96363.91;;;-2.35;70.17
35878;BME280;21982;49.804;24.072;2024-01-07T09:02:51;96618.97;;;-0.74;70.40
35878;BME280;21982;49.804;24.072;2024-01-07T09:05:16;96512.91;;;-1.28;69.89
35878;BME280;21982;49.804;24.072;2024-01-07T09:07:42;96588.88;;;-0.77;70.03
35878;BME280;21982;49.804;24.072;2024-01-07T09:10:07;96645.53;;;-0.32;70.20
35878;BME280;21982;49.804;24.072;2024-01-07T09:12:36;96612.41;;;-0.59;70.09
35878;BME280;21982;49.804;24.072;2024-01-07T09:15:02;96659.38;;;-0.22;69.73
35878;BME280;21982;49.804;24.072;2024-01-07T09:17:28;96653.22;;;-0.30;69.97
35878;BME280;21982;49.804;24.072;2024-01-07T09:19:53;96609.69;;;-0.57;69.57
35878;BME280;21982;49.804;24.072;2024-01-07T09:22:18;96638.56;;;-0.41;69.60
35878;BME280;21982;49.804;24.072;2024-01-07T09:24:44;96547.00;;;-0.93;69.65
35878;BME280;21982;49.804;24.072;2024-01-07T09:27:09;96650.91;;;-0.43;69.38
35878;BME280;21982;49.804;24.072;2024-01-07T09:29:35;96641.56;;;-0.55;69.59
35878;BME280;21982;49.804;24.072;2024-01-07T09:32:00;96630.59;;;-0.69;69.49
35878;BME280;21982;49.804;24.072;2024-01-07T09:34:25;96618.13;;;-0.84;69.51
35878;BME280;21982;49.804;24.072;2024-01-07T09:36:51;96583.91;;;-0.99;69.53
35878;BME280;21982;49.804;24.072;2024-01-07T09:39:16;96645.66;;;-0.62;69.63
35878;BME280;21982;49.804;24.072;2024-01-07T09:41:42;96622.69;;;-0.57;69.55
35878;BME280;21982;49.804;24.072;2024-01-07T09:44:08;96648.84;;;-0.20;69.38
35878;BME280;21982;49.804;24.072;2024-01-07T09:46:37;96660.88;;;-0.10;69.45
35878;BME280;21982;49.804;24.072;2024-01-07T09:49:02;96596.41;;;-0.35;68.76
35878;BME280;21982;49.804;24.072;2024-01-07T09:51:29;96650.75;;;-0.13;68.95
35878;BME280;21982;49.804;24.072;2024-01-07T09:53:57;96612.16;;;-0.37;68.96
35878;BME280;21982;49.804;24.072;2024-01-07T09:56:25;96633.75;;;-0.26;68.96
35878;BME280;21982;49.804;24.072;2024-01-07T09:58:51;96565.22;;;-0.74;69.29
35878;BME280;21982;49.804;24.072;2024-01-07T10:01:20;96622.53;;;-0.27;69.08
35878;BME280;21982;49.804;24.072;2024-01-07T10:03:45;96582.03;;;-0.58;68.82
35878;BME280;21982;49.804;24.072;2024-01-07T10:06:11;96580.66;;;-0.53;69.00
35878;BME280;21982;49.804;24.072;2024-01-07T10:08:38;96633.22;;;-0.30;68.93
35878;BME280;21982;49.804;24.072;2024-01-07T10:11:03;96583.81;;;-0.59;68.77
35878;BME280;21982;49.804;24.072;2024-01-07T10:13:30;96631.31;;;-0.28;68.94
35878;BME280;21982;49.804;24.072;2024-01-07T10:15:56;96627.06;;;-0.19;68.97
35878;BME280;21982;49.804;24.072;2024-01-07T10:18:21;96621.03;;;-0.29;68.86
35878;BME280;21982;49.804;24.072;2024-01-07T10:20:46;96608.88;;;-0.48;68.27
35878;BME280;21982;49.804;24.072;2024-01-07T10:23:12;96593.69;;;-0.72;68.65
35878;BME280;21982;49.804;24.072;2024-01-07T10:25:40;96630.22;;;-0.45;68.94
35878;BME280;21982;49.804;24.072;2024-01-07T10:28:05;96623.38;;;-0.36;68.95
35878;BME280;21982;49.804;24.072;2024-01-07T10:30:31;96581.47;;;-0.62;68.62
35878;BME280;21982;49.804;24.072;2024-01-07T10:32:59;96621.75;;;-0.37;68.17
35878;BME280;21982;49.804;24.072;2024-01-07T10:35:32;96602.28;;;-0.52;68.37
35878;BME280;21982;49.804;24.072;2024-01-07T10:37:59;96575.59;;;-0.64;68.62
35878;BME280;21982;49.804;24.072;2024-01-07T10:40:26;96540.16;;;-0.94;68.54
35878;BME280;21982;49.804;24.072;2024-01-07T10:42:52;96594.06;;;-0.57;68.74
35878;BME280;21982;49.804;24.072;2024-01-07T10:45:19;96620.91;;;-0.28;68.17
35878;BME280;21982;49.804;24.072;2024-01-07T10:47:50;96619.53;;;-0.32;68.42
35878;BME280;21982;49.804;24.072;2024-01-07T10:50:16;96616.53;;;-0.47;68.27
35878;BME280;21982;49.804;24.072;2024-01-07T10:52:53;96620.38;;;-0.41;68.20
35878;BME280;21982;49.804;24.072;2024-01-07T10:55:22;96607.38;;;-0.41;68.01
35878;BME280;21982;49.804;24.072;2024-01-07T10:57:53;96586.13;;;-0.56;67.92
35878;BME280;21982;49.804;24.072;2024-01-07T11:00:19;96493.06;;;-1.29;67.55
35878;BME280;21982;49.804;24.072;2024-01-07T11:06:05;96615.00;;;-0.69;67.91
35878;BME280;21982;49.804;24.072;2024-01-07T11:08:46;96615.56;;;-0.75;68.08
35878;BME280;21982;49.804;24.072;2024-01-07T11:11:25;96611.03;;;-0.82;67.96
35878;BME280;21982;49.804;24.072;2024-01-07T11:13:51;96594.72;;;-0.94;68.06
35878;BME280;21982;49.804;24.072;2024-01-07T11:19:04;96596.09;;;-0.90;67.97
35878;BME280;21982;49.804;24.072;2024-01-07T11:21:30;96627.44;;;-0.82;68.14
35878;BME280;21982;49.804;24.072;2024-01-07T11:23:55;96562.03;;;-1.06;68.13
35878;BME280;21982;49.804;24.072;2024-01-07T11:26:21;96610.34;;;-0.75;67.66
35878;BME280;21982;49.804;24.072;2024-01-07T11:31:19;96562.44;;;-1.01;67.91
35878;BME280;21982;49.804;24.072;2024-01-07T11:33:47;96596.25;;;-0.82;67.66
35878;BME280;21982;49.804;24.072;2024-01-07T11:36:14;96602.00;;;-0.69;67.57
35878;BME280;21982;49.804;24.072;2024-01-07T11:41:11;96573.41;;;-0.88;67.49
35878;BME280;21982;49.804;24.072;2024-01-07T11:43:43;96597.75;;;-0.60;67.58
35878;BME280;21982;49.804;24.072;2024-01-07T11:46:17;96612.13;;;-0.65;67.16
35878;BME280;21982;49.804;24.072;2024-01-07T11:48:45;96605.84;;;-0.73;66.90
35878;BME280;21982;49.804;24.072;2024-01-07T11:51:11;96607.75;;;-0.75;67.35
35878;BME280;21982;49.804;24.072;2024-01-07T11:53:37;96585.69;;;-0.99;67.58
35878;BME280;21982;49.804;24.072;2024-01-07T11:56:02;96580.63;;;-1.01;67.31
35878;BME280;21982;49.804;24.072;2024-01-07T11:58:28;96617.88;;;-0.81;67.37
35878;BME280;21982;49.804;24.072;2024-01-07T12:00:53;96616.22;;;-0.82;67.63
35878;BME280;21982;49.804;24.072;2024-01-07T12:03:19;96558.69;;;-1.27;67.17
35878;BME280;21982;49.804;24.072;2024-01-07T12:05:44;96630.41;;;-0.96;67.36
35878;BME280;21982;49.804;24.072;2024-01-07T12:08:10;96564.41;;;-1.33;67.38
35878;BME280;21982;49.804;24.072;2024-01-07T12:10:37;96606.34;;;-0.98;67.42
35878;BME280;21982;49.804;24.072;2024-01-07T12:13:03;96591.06;;;-1.31;67.28
35878;BME280;21982;49.804;24.072;2024-01-07T12:15:29;96604.06;;;-1.31;67.37
35878;BME280;21982;49.804;24.072;2024-01-07T12:17:58;96617.50;;;-1.17;67.21
35878;BME280;21982;49.804;24.072;2024-01-07T12:20:27;96633.81;;;-1.05;67.39
35878;BME280;21982;49.804;24.072;2024-01-07T12:22:56;96618.50;;;-1.08;67.00
35878;BME280;21982;49.804;24.072;2024-01-07T12:25:23;96607.09;;;-1.26;67.03
35878;BME280;21982;49.804;24.072;2024-01-07T12:27:51;96566.28;;;-1.55;67.47
35878;BME280;21982;49.804;24.072;2024-01-07T12:30:20;96569.78;;;-1.65;67.18
35878;BME280;21982;49.804;24.072;2024-01-07T12:32:51;96592.53;;;-1.48;67.19
35878;BME280;21982;49.804;24.072;2024-01-07T12:35:17;96595.97;;;-1.78;67.49
35878;BME280;21982;49.804;24.072;2024-01-07T12:37:43;96585.84;;;-1.81;67.28
35878;BME280;21982;49.804;24.072;2024-01-07T12:40:10;96638.13;;;-1.55;67.77
35878;BME280;21982;49.804;24.072;2024-01-07T12:42:37;96642.94;;;-1.51;67.47
35878;BME280;21982;49.804;24.072;2024-01-07T12:45:05;96660.00;;;-1.58;67.43
35878;BME280;21982;49.804;24.072;2024-01-07T12:47:30;96645.44;;;-1.70;67.44
35878;BME280;21982;49.804;24.072;2024-01-07T12:49:56;96652.81;;;-1.75;67.83
35878;BME280;21982;49.804;24.072;2024-01-07T12:52:23;96641.47;;;-1.74;67.73
35878;BME280;21982;49.804;24.072;2024-01-07T12:54:50;96644.56;;;-1.80;67.31
35878;BME280;21982;49.804;24.072;2024-01-07T12:57:15;96657.34;;;-1.88;67.67
35878;BME280;21982;49.804;24.072;2024-01-07T12:59:41;96651.53;;;-2.02;67.68
35878;BME280;21982;49.804;24.072;2024-01-07T13:02:06;96663.63;;;-1.91;67.35